sensor_id;sensor_type;location;lat;lon;timestamp;P1;durP1;ratioP1;P2;durP2;ratioP2
26946;SDS011;14501;52.282;10.560;2023-07-09T00:01:49;8.38;;;6.00;;
26946;SDS011;14501;52.282;10.560;2023-07-09T00:04:14;9.45;;;5.82;;
26946;SDS011;14501;52.282;10.560;2023-07-09T00:06:40;10.65;;;6.53;;
26946;SDS011;14501;52.282;10.560;2023-07-09T00:09:11;8.15;;;5.38;;
26946;SDS011;14501;52.282;10.560;2023-07-09T00:11:40;8.55;;;5.80;;
26946;SDS011;14501;52.282;10.560;2023-07-09T00:14:07;10.32;;;5.28;;
26946;SDS011;14501;52.282;10.560;2023-07-09T00:16:37;10.05;;;5.50;;
26946;SDS011;14501;52.282;10.560;2023-07-09T00:19:07;10.10;;;5.20;;
26946;SDS011;14501;52.282;10.560;2023-07-09T00:21:41;7.50;;;5.25;;
26946;SDS011;14501;52.282;10.560;2023-07-09T00:24:07;8.07;;;5.35;;
26946;SDS011;14501;52.282;10.560;2023-07-09T00:26:35;6.75;;;4.63;;
26946;SDS011;14501;52.282;10.560;2023-07-09T00:29:03;7.88;;;5.13;;
26946;SDS011;14501;52.282;10.560;2023-07-09T00:31:29;8.60;;;4.75;;
26946;SDS011;14501;52.282;10.560;2023-07-09T00:33:55;8.38;;;4.40;;
26946;SDS011;14501;52.282;10.560;2023-07-09T00:36:26;9.00;;;4.90;;
26946;SDS011;14501;52.282;10.560;2023-07-09T00:38:54;7.10;;;4.65;;
26946;SDS011;14501;52.282;10.560;2023-07-09T00:41:21;8.85;;;4.88;;
26946;SDS011;14501;52.282;10.560;2023-07-09T00:43:48;5.85;;;4.65;;
26946;SDS011;14501;52.282;10.560;2023-07-09T00:49:11;8.38;;;4.68;;
26946;SDS011;14501;52.282;10.560;2023-07-09T00:51:42;9.18;;;5.13;;
26946;SDS011;14501;52.282;10.560;2023-07-09T00:54:43;8.80;;;4.70;;
26946;SDS011;14501;52.282;10.560;2023-07-09T00:57:13;9.05;;;4.82;;
26946;SDS011;14501;52.282;10.560;2023-07-09T00:59:42;7.13;;;5.43;;
26946;SDS011;14501;52.282;10.560;2023-07-09T01:02:13;6.25;;;4.45;;
26946;SDS011;14501;52.282;10.560;2023-07-09T01:04:39;8.60;;;4.97;;
26946;SDS011;14501;52.282;10.560;2023-07-09T01:07:06;5.28;;;4.78;;
26946;SDS011;14501;52.282;10.560;2023-07-09T01:09:32;10.15;;;5.00;;
26946;SDS011;14501;52.282;10.560;2023-07-09T01:12:01;9.52;;;4.40;;
26946;SDS011;14501;52.282;10.560;2023-07-09T01:14:30;10.13;;;5.15;;
26946;SDS011;14501;52.282;10.560;2023-07-09T01:16:59;6.00;;;4.40;;
26946;SDS011;14501;52.282;10.560;2023-07-09T01:19:27;7.85;;;4.80;;
26946;SDS011;14501;52.282;10.560;2023-07-09T01:21:55;6.90;;;4.60;;
26946;SDS011;14501;52.282;10.560;2023-07-09T01:27:13;4.93;;;4.43;;
26946;SDS011;14501;52.282;10.560;2023-07-09T01:29:39;7.43;;;4.80;;
26946;SDS011;14501;52.282;10.560;2023-07-09T01:32:06;6.30;;;5.25;;
26946;SDS011;14501;52.282;10.560;2023-07-09T01:34:32;7.68;;;5.00;;
26946;SDS011;14501;52.282;10.560;2023-07-09T01:36:59;5.10;;;4.60;;
26946;SDS011;14501;52.282;10.560;2023-07-09T01:39:26;5.65;;;4.95;;
26946;SDS011;14501;52.282;10.560;2023-07-09T01:41:53;6.00;;;4.88;;
26946;SDS011;14501;52.282;10.560;2023-07-09T01:44:19;7.40;;;5.28;;
26946;SDS011;14501;52.282;10.560;2023-07-09T01:46:44;9.27;;;5.43;;
26946;SDS011;14501;52.282;10.560;2023-07-09T01:49:10;8.18;;;6.00;;
26946;SDS011;14501;52.282;10.560;2023-07-09T01:51:36;11.45;;;6.22;;
26946;SDS011;14501;52.282;10.560;2023-07-09T01:54:03;9.57;;;5.75;;
26946;SDS011;14501;52.282;10.560;2023-07-09T01:56:29;8.65;;;5.63;;
26946;SDS011;14501;52.282;10.560;2023-07-09T01:58:55;8.05;;;5.57;;
26946;SDS011;14501;52.282;10.560;2023-07-09T02:01:27;7.15;;;5.32;;
26946;SDS011;14501;52.282;10.560;2023-07-09T02:03:54;8.43;;;5.43;;
26946;SDS011;14501;52.282;10.560;2023-07-09T02:06:19;9.05;;;5.00;;
26946;SDS011;14501;52.282;10.560;2023-07-09T02:08:49;7.05;;;5.45;;
26946;SDS011;14501;52.282;10.560;2023-07-09T02:11:15;5.93;;;5.32;;
26946;SDS011;14501;52.282;10.560;2023-07-09T02:13:40;5.95;;;4.88;;
26946;SDS011;14501;52.282;10.560;2023-07-09T02:16:06;5.93;;;5.32;;
26946;SDS011;14501;52.282;10.560;2023-07-09T02:18:32;9.27;;;5.90;;
26946;SDS011;14501;52.282;10.560;2023-07-09T02:20:57;6.38;;;5.40;;
26946;SDS011;14501;52.282;10.560;2023-07-09T02:23:26;11.60;;;6.43;;
26946;SDS011;14501;52.282;10.560;2023-07-09T02:25:53;8.70;;;5.78;;
26946;SDS011;14501;52.282;10.560;2023-07-09T02:28:19;7.70;;;6.07;;
26946;SDS011;14501;52.282;10.560;2023-07-09T02:30:44;9.45;;;5.88;;
26946;SDS011;14501;52.282;10.560;2023-07-09T02:33:10;7.10;;;5.70;;
26946;SDS011;14501;52.282;10.560;2023-07-09T02:35:36;8.10;;;5.78;;
26946;SDS011;14501;52.282;10.560;2023-07-09T02:38:02;6.63;;;5.55;;
26946;SDS011;14501;52.282;10.560;2023-07-09T02:40:28;9.80;;;5.97;;
26946;SDS011;14501;52.282;10.560;2023-07-09T02:42:54;8.80;;;6.13;;
26946;SDS011;14501;52.282;10.560;2023-07-09T02:45:20;8.02;;;5.75;;
26946;SDS011;14501;52.282;10.560;2023-07-09T02:47:46;10.05;;;6.00;;
26946;SDS011;14501;52.282;10.560;2023-07-09T02:50:12;10.73;;;6.15;;
26946;SDS011;14501;52.282;10.560;2023-07-09T02:52:37;10.23;;;6.07;;
26946;SDS011;14501;52.282;10.560;2023-07-09T02:55:03;8.30;;;5.82;;
26946;SDS011;14501;52.282;10.560;2023-07-09T02:57:29;11.63;;;6.30;;
26946;SDS011;14501;52.282;10.560;2023-07-09T02:59:55;6.80;;;5.80;;
26946;SDS011;14501;52.282;10.560;2023-07-09T03:02:20;7.97;;;6.05;;
26946;SDS011;14501;52.282;10.560;2023-07-09T03:04:46;8.55;;;6.97;;
26946;SDS011;14501;52.282;10.560;2023-07-09T03:07:11;8.23;;;6.38;;
26946;SDS011;14501;52.282;10.560;2023-07-09T03:09:37;8.55;;;6.28;;
26946;SDS011;14501;52.282;10.560;2023-07-09T03:12:03;9.93;;;5.90;;
26946;SDS011;14501;52.282;10.560;2023-07-09T03:14:29;10.10;;;6.00;;
26946;SDS011;14501;52.282;10.560;2023-07-09T03:16:55;7.07;;;5.63;;
26946;SDS011;14501;52.282;10.560;2023-07-09T03:19:21;9.35;;;6.53;;
26946;SDS011;14501;52.282;10.560;2023-07-09T03:21:47;10.13;;;6.60;;
26946;SDS011;14501;52.282;10.560;2023-07-09T03:24:13;9.68;;;6.60;;
26946;SDS011;14501;52.282;10.560;2023-07-09T03:26:43;9.82;;;6.03;;
26946;SDS011;14501;52.282;10.560;2023-07-09T03:29:09;7.68;;;6.53;;
26946;SDS011;14501;52.282;10.560;2023-07-09T03:31:35;9.60;;;6.53;;
26946;SDS011;14501;52.282;10.560;2023-07-09T03:34:00;9.45;;;5.93;;
26946;SDS011;14501;52.282;10.560;2023-07-09T03:36:26;9.90;;;5.95;;
26946;SDS011;14501;52.282;10.560;2023-07-09T03:38:52;8.45;;;6.40;;
26946;SDS011;14501;52.282;10.560;2023-07-09T03:41:18;10.35;;;6.72;;
26946;SDS011;14501;52.282;10.560;2023-07-09T03:43:43;11.90;;;6.32;;
26946;SDS011;14501;52.282;10.560;2023-07-09T03:46:09;9.85;;;5.78;;
26946;SDS011;14501;52.282;10.560;2023-07-09T03:48:35;8.85;;;6.70;;
26946;SDS011;14501;52.282;10.560;2023-07-09T03:51:00;11.32;;;6.90;;
26946;SDS011;14501;52.282;10.560;2023-07-09T03:53:26;8.82;;;6.47;;
26946;SDS011;14501;52.282;10.560;2023-07-09T03:55:53;9.55;;;7.03;;
26946;SDS011;14501;52.282;10.560;2023-07-09T03:58:19;11.80;;;5.88;;
26946;SDS011;14501;52.282;10.560;2023-07-09T04:00:45;11.55;;;6.63;;
26946;SDS011;14501;52.282;10.560;2023-07-09T04:03:11;7.30;;;5.85;;
26946;SDS011;14501;52.282;10.560;2023-07-09T04:05:36;8.10;;;6.20;;
26946;SDS011;14501;52.282;10.560;2023-07-09T04:08:02;7.45;;;6.10;;
26946;SDS011;14501;52.282;10.560;2023-07-09T04:10:29;6.80;;;5.85;;
26946;SDS011;14501;52.282;10.560;2023-07-09T04:12:54;8.93;;;6.25;;
26946;SDS011;14501;52.282;10.560;2023-07-09T04:15:21;10.98;;;6.13;;
26946;SDS011;14501;52.282;10.560;2023-07-09T04:17:46;9.40;;;6.07;;
26946;SDS011;14501;52.282;10.560;2023-07-09T04:20:12;7.43;;;6.30;;
26946;SDS011;14501;52.282;10.560;2023-07-09T04:22:38;8.18;;;6.30;;
26946;SDS011;14501;52.282;10.560;2023-07-09T04:25:05;7.53;;;6.38;;
26946;SDS011;14501;52.282;10.560;2023-07-09T04:27:32;7.05;;;5.63;;
26946;SDS011;14501;52.282;10.560;2023-07-09T04:29:58;6.07;;;5.47;;
26946;SDS011;14501;52.282;10.560;2023-07-09T04:32:24;8.48;;;6.50;;
26946;SDS011;14501;52.282;10.560;2023-07-09T04:34:50;8.15;;;6.40;;
26946;SDS011;14501;52.282;10.560;2023-07-09T04:37:16;9.18;;;6.10;;
26946;SDS011;14501;52.282;10.560;2023-07-09T04:39:42;11.07;;;6.63;;
26946;SDS011;14501;52.282;10.560;2023-07-09T04:42:10;9.25;;;5.88;;
26946;SDS011;14501;52.282;10.560;2023-07-09T04:44:37;8.90;;;5.80;;
26946;SDS011;14501;52.282;10.560;2023-07-09T04:47:03;8.82;;;6.18;;
26946;SDS011;14501;52.282;10.560;2023-07-09T04:49:28;14.13;;;6.05;;
26946;SDS011;14501;52.282;10.560;2023-07-09T04:51:54;9.20;;;6.10;;
26946;SDS011;14501;52.282;10.560;2023-07-09T04:54:21;6.18;;;5.57;;
26946;SDS011;14501;52.282;10.560;2023-07-09T04:56:48;8.27;;;5.97;;
26946;SDS011;14501;52.282;10.560;2023-07-09T04:59:14;12.57;;;6.65;;
26946;SDS011;14501;52.282;10.560;2023-07-09T05:01:40;7.43;;;6.18;;
26946;SDS011;14501;52.282;10.560;2023-07-09T05:04:05;7.55;;;5.90;;
26946;SDS011;14501;52.282;10.560;2023-07-09T05:06:31;8.13;;;5.65;;
26946;SDS011;14501;52.282;10.560;2023-07-09T05:08:58;8.68;;;5.18;;
26946;SDS011;14501;52.282;10.560;2023-07-09T05:11:23;7.07;;;5.60;;
26946;SDS011;14501;52.282;10.560;2023-07-09T05:13:49;8.13;;;5.80;;
26946;SDS011;14501;52.282;10.560;2023-07-09T05:16:15;6.97;;;5.38;;
26946;SDS011;14501;52.282;10.560;2023-07-09T05:18:40;8.00;;;5.30;;
26946;SDS011;14501;52.282;10.560;2023-07-09T05:21:06;6.88;;;5.40;;
26946;SDS011;14501;52.282;10.560;2023-07-09T05:23:31;7.60;;;5.45;;
26946;SDS011;14501;52.282;10.560;2023-07-09T05:25:58;6.05;;;5.38;;
26946;SDS011;14501;52.282;10.560;2023-07-09T05:28:24;7.97;;;5.53;;
26946;SDS011;14501;52.282;10.560;2023-07-09T05:30:50;7.85;;;5.68;;
26946;SDS011;14501;52.282;10.560;2023-07-09T05:33:16;8.52;;;5.70;;
26946;SDS011;14501;52.282;10.560;2023-07-09T05:35:43;5.80;;;5.05;;
26946;SDS011;14501;52.282;10.560;2023-07-09T05:38:09;7.22;;;5.13;;
26946;SDS011;14501;52.282;10.560;2023-07-09T05:40:35;9.07;;;5.75;;
26946;SDS011;14501;52.282;10.560;2023-07-09T05:43:01;15.38;;;5.60;;
26946;SDS011;14501;52.282;10.560;2023-07-09T05:45:27;5.63;;;5.10;;
26946;SDS011;14501;52.282;10.560;2023-07-09T05:47:52;6.22;;;5.32;;
26946;SDS011;14501;52.282;10.560;2023-07-09T05:50:18;8.65;;;5.68;;
26946;SDS011;14501;52.282;10.560;2023-07-09T05:52:43;8.25;;;5.35;;
26946;SDS011;14501;52.282;10.560;2023-07-09T05:55:09;6.70;;;5.03;;
26946;SDS011;14501;52.282;10.560;2023-07-09T05:57:35;7.47;;;4.60;;
26946;SDS011;14501;52.282;10.560;2023-07-09T06:00:00;10.00;;;5.53;;
26946;SDS011;14501;52.282;10.560;2023-07-09T06:02:26;5.53;;;4.75;;
26946;SDS011;14501;52.282;10.560;2023-07-09T06:04:52;6.78;;;4.70;;
26946;SDS011;14501;52.282;10.560;2023-07-09T06:07:17;6.60;;;4.72;;
26946;SDS011;14501;52.282;10.560;2023-07-09T06:09:45;7.72;;;4.50;;
26946;SDS011;14501;52.282;10.560;2023-07-09T06:12:12;6.38;;;4.55;;
26946;SDS011;14501;52.282;10.560;2023-07-09T06:14:38;4.38;;;3.97;;
26946;SDS011;14501;52.282;10.560;2023-07-09T06:17:04;6.45;;;4.40;;
26946;SDS011;14501;52.282;10.560;2023-07-09T06:19:30;5.68;;;4.45;;
26946;SDS011;14501;52.282;10.560;2023-07-09T06:21:56;5.43;;;3.75;;
26946;SDS011;14501;52.282;10.560;2023-07-09T06:24:21;4.50;;;4.05;;
26946;SDS011;14501;52.282;10.560;2023-07-09T06:26:47;4.60;;;4.05;;
26946;SDS011;14501;52.282;10.560;2023-07-09T06:29:13;6.13;;;4.28;;
26946;SDS011;14501;52.282;10.560;2023-07-09T06:31:39;6.75;;;3.80;;
26946;SDS011;14501;52.282;10.560;2023-07-09T06:34:05;6.35;;;4.10;;
26946;SDS011;14501;52.282;10.560;2023-07-09T06:36:34;5.90;;;4.53;;
26946;SDS011;14501;52.282;10.560;2023-07-09T06:39:00;5.90;;;4.75;;
26946;SDS011;14501;52.282;10.560;2023-07-09T06:41:27;8.75;;;4.97;;
26946;SDS011;14501;52.282;10.560;2023-07-09T06:43:53;6.80;;;4.35;;
26946;SDS011;14501;52.282;10.560;2023-07-09T06:46:19;8.00;;;4.75;;
26946;SDS011;14501;52.282;10.560;2023-07-09T06:48:45;5.07;;;4.63;;
26946;SDS011;14501;52.282;10.560;2023-07-09T06:51:11;5.07;;;4.57;;
26946;SDS011;14501;52.282;10.560;2023-07-09T06:53:36;4.93;;;4.43;;
26946;SDS011;14501;52.282;10.560;2023-07-09T06:56:02;7.10;;;4.57;;
26946;SDS011;14501;52.282;10.560;2023-07-09T06:58:29;6.68;;;5.15;;
26946;SDS011;14501;52.282;10.560;2023-07-09T07:00:57;5.38;;;4.68;;
26946;SDS011;14501;52.282;10.560;2023-07-09T07:03:23;5.85;;;4.60;;
26946;SDS011;14501;52.282;10.560;2023-07-09T07:05:50;4.80;;;4.38;;
26946;SDS011;14501;52.282;10.560;2023-07-09T07:08:19;4.80;;;4.30;;
26946;SDS011;14501;52.282;10.560;2023-07-09T07:10:47;6.50;;;4.68;;
26946;SDS011;14501;52.282;10.560;2023-07-09T07:13:13;8.40;;;4.78;;
26946;SDS011;14501;52.282;10.560;2023-07-09T07:15:39;7.32;;;4.65;;
26946;SDS011;14501;52.282;10.560;2023-07-09T07:18:05;5.88;;;4.80;;
26946;SDS011;14501;52.282;10.560;2023-07-09T07:20:31;5.72;;;4.78;;
26946;SDS011;14501;52.282;10.560;2023-07-09T07:22:57;6.70;;;4.63;;
26946;SDS011;14501;52.282;10.560;2023-07-09T07:25:23;6.10;;;4.30;;
26946;SDS011;14501;52.282;10.560;2023-07-09T07:27:49;5.05;;;4.65;;
26946;SDS011;14501;52.282;10.560;2023-07-09T07:30:15;7.82;;;4.63;;
26946;SDS011;14501;52.282;10.560;2023-07-09T07:32:42;5.82;;;4.75;;
26946;SDS011;14501;52.282;10.560;2023-07-09T07:35:11;8.40;;;4.40;;
26946;SDS011;14501;52.282;10.560;2023-07-09T07:37:38;5.05;;;4.55;;
26946;SDS011;14501;52.282;10.560;2023-07-09T07:40:04;4.90;;;4.43;;
26946;SDS011;14501;52.282;10.560;2023-07-09T07:42:30;4.75;;;4.35;;
26946;SDS011;14501;52.282;10.560;2023-07-09T07:44:56;6.35;;;4.50;;
26946;SDS011;14501;52.282;10.560;2023-07-09T07:47:22;7.28;;;4.75;;
26946;SDS011;14501;52.282;10.560;2023-07-09T07:49:47;8.45;;;5.50;;
26946;SDS011;14501;52.282;10.560;2023-07-09T07:52:13;5.13;;;4.53;;
26946;SDS011;14501;52.282;10.560;2023-07-09T07:54:39;7.38;;;4.93;;
26946;SDS011;14501;52.282;10.560;2023-07-09T07:57:05;9.18;;;4.90;;
26946;SDS011;14501;52.282;10.560;2023-07-09T07:59:34;7.50;;;4.55;;
26946;SDS011;14501;52.282;10.560;2023-07-09T08:02:00;6.22;;;4.90;;
26946;SDS011;14501;52.282;10.560;2023-07-09T08:04:27;5.25;;;4.82;;
26946;SDS011;14501;52.282;10.560;2023-07-09T08:06:52;6.80;;;4.80;;
26946;SDS011;14501;52.282;10.560;2023-07-09T08:09:18;6.90;;;4.55;;
26946;SDS011;14501;52.282;10.560;2023-07-09T08:11:44;5.47;;;4.88;;
26946;SDS011;14501;52.282;10.560;2023-07-09T08:14:10;5.60;;;4.72;;
26946;SDS011;14501;52.282;10.560;2023-07-09T08:16:36;6.93;;;4.55;;
26946;SDS011;14501;52.282;10.560;2023-07-09T08:19:01;4.97;;;4.53;;
26946;SDS011;14501;52.282;10.560;2023-07-09T08:21:27;4.80;;;4.30;;
26946;SDS011;14501;52.282;10.560;2023-07-09T08:23:53;5.47;;;4.95;;
26946;SDS011;14501;52.282;10.560;2023-07-09T08:26:18;5.30;;;4.80;;
26946;SDS011;14501;52.282;10.560;2023-07-09T08:28:44;8.70;;;4.85;;
26946;SDS011;14501;52.282;10.560;2023-07-09T08:31:10;5.10;;;4.55;;
26946;SDS011;14501;52.282;10.560;2023-07-09T08:33:35;5.13;;;4.28;;
26946;SDS011;14501;52.282;10.560;2023-07-09T08:36:01;4.88;;;4.30;;
26946;SDS011;14501;52.282;10.560;2023-07-09T08:38:27;4.60;;;4.18;;
26946;SDS011;14501;52.282;10.560;2023-07-09T08:46:35;7.00;;;4.55;;
26946;SDS011;14501;52.282;10.560;2023-07-09T08:49:03;5.47;;;4.60;;
26946;SDS011;14501;52.282;10.560;2023-07-09T08:51:43;5.32;;;4.28;;
26946;SDS011;14501;52.282;10.560;2023-07-09T08:54:51;5.53;;;4.85;;
26946;SDS011;14501;52.282;10.560;2023-07-09T08:57:02;8.98;;;4.88;;
26946;SDS011;14501;52.282;10.560;2023-07-09T08:59:43;8.30;;;4.70;;
26946;SDS011;14501;52.282;10.560;2023-07-09T09:02:24;5.63;;;4.75;;
26946;SDS011;14501;52.282;10.560;2023-07-09T09:05:01;5.93;;;4.22;;
26946;SDS011;14501;52.282;10.560;2023-07-09T09:10:07;4.97;;;4.47;;
26946;SDS011;14501;52.282;10.560;2023-07-09T09:12:43;4.97;;;4.45;;
26946;SDS011;14501;52.282;10.560;2023-07-09T09:15:22;7.35;;;4.57;;
26946;SDS011;14501;52.282;10.560;2023-07-09T09:17:50;6.20;;;4.60;;
26946;SDS011;14501;52.282;10.560;2023-07-09T09:20:21;5.40;;;4.30;;
26946;SDS011;14501;52.282;10.560;2023-07-09T09:22:48;4.63;;;4.22;;
26946;SDS011;14501;52.282;10.560;2023-07-09T09:27:46;4.38;;;3.97;;
26946;SDS011;14501;52.282;10.560;2023-07-09T09:30:15;5.15;;;4.65;;
26946;SDS011;14501;52.282;10.560;2023-07-09T09:32:55;5.35;;;4.25;;
26946;SDS011;14501;52.282;10.560;2023-07-09T09:35:27;5.80;;;4.45;;
26946;SDS011;14501;52.282;10.560;2023-07-09T09:37:58;5.15;;;4.70;;
26946;SDS011;14501;52.282;10.560;2023-07-09T09:40:25;5.80;;;4.50;;
26946;SDS011;14501;52.282;10.560;2023-07-09T09:42:54;5.72;;;4.22;;
26946;SDS011;14501;52.282;10.560;2023-07-09T09:45:26;4.28;;;3.88;;
26946;SDS011;14501;52.282;10.560;2023-07-09T09:48:00;4.65;;;4.25;;
26946;SDS011;14501;52.282;10.560;2023-07-09T09:50:27;6.32;;;4.38;;
26946;SDS011;14501;52.282;10.560;2023-07-09T09:52:56;8.70;;;4.30;;
26946;SDS011;14501;52.282;10.560;2023-07-09T09:55:24;4.30;;;3.90;;
26946;SDS011;14501;52.282;10.560;2023-07-09T09:57:57;6.10;;;4.53;;
26946;SDS011;14501;52.282;10.560;2023-07-09T10:00:24;7.72;;;4.35;;
26946;SDS011;14501;52.282;10.560;2023-07-09T10:03:03;6.88;;;4.28;;
26946;SDS011;14501;52.282;10.560;2023-07-09T10:05:33;4.63;;;4.18;;
26946;SDS011;14501;52.282;10.560;2023-07-09T10:08:09;5.97;;;4.60;;
26946;SDS011;14501;52.282;10.560;2023-07-09T10:13:58;4.53;;;4.13;;
26946;SDS011;14501;52.282;10.560;2023-07-09T10:16:40;7.15;;;4.45;;
26946;SDS011;14501;52.282;10.560;2023-07-09T10:19:14;5.15;;;4.30;;
26946;SDS011;14501;52.282;10.560;2023-07-09T10:22:05;4.78;;;4.30;;
26946;SDS011;14501;52.282;10.560;2023-07-09T10:25:51;5.00;;;4.22;;
26946;SDS011;14501;52.282;10.560;2023-07-09T10:28:16;4.57;;;4.10;;
26946;SDS011;14501;52.282;10.560;2023-07-09T10:39:28;4.95;;;3.95;;
26946;SDS011;14501;52.282;10.560;2023-07-09T10:41:56;4.53;;;4.03;;
26946;SDS011;14501;52.282;10.560;2023-07-09T10:44:29;4.88;;;4.35;;
26946;SDS011;14501;52.282;10.560;2023-07-09T10:47:03;9.07;;;4.68;;
26946;SDS011;14501;52.282;10.560;2023-07-09T10:49:37;6.47;;;4.10;;
26946;SDS011;14501;52.282;10.560;2023-07-09T10:52:27;4.55;;;4.15;;
26946;SDS011;14501;52.282;10.560;2023-07-09T10:57:29;4.60;;;4.00;;
26946;SDS011;14501;52.282;10.560;2023-07-09T11:00:17;10.60;;;4.70;;
26946;SDS011;14501;52.282;10.560;2023-07-09T11:02:45;4.90;;;4.40;;
26946;SDS011;14501;52.282;10.560;2023-07-09T11:05:16;6.53;;;3.92;;
26946;SDS011;14501;52.282;10.560;2023-07-09T11:07:47;4.80;;;4.10;;
26946;SDS011;14501;52.282;10.560;2023-07-09T11:10:21;5.75;;;4.30;;
26946;SDS011;14501;52.282;10.560;2023-07-09T11:12:53;6.93;;;4.47;;
26946;SDS011;14501;52.282;10.560;2023-07-09T11:15:25;7.75;;;4.70;;
26946;SDS011;14501;52.282;10.560;2023-07-09T11:17:56;6.32;;;4.32;;
26946;SDS011;14501;52.282;10.560;2023-07-09T11:20:24;8.07;;;4.20;;
26946;SDS011;14501;52.282;10.560;2023-07-09T11:25:29;5.55;;;4.40;;
26946;SDS011;14501;52.282;10.560;2023-07-09T11:28:07;8.35;;;4.70;;
26946;SDS011;14501;52.282;10.560;2023-07-09T11:30:44;6.47;;;4.65;;
26946;SDS011;14501;52.282;10.560;2023-07-09T11:33:16;5.68;;;4.35;;
26946;SDS011;14501;52.282;10.560;2023-07-09T11:36:09;6.30;;;4.38;;
26946;SDS011;14501;52.282;10.560;2023-07-09T11:38:41;6.10;;;4.80;;
26946;SDS011;14501;52.282;10.560;2023-07-09T11:41:25;7.20;;;4.30;;
26946;SDS011;14501;52.282;10.560;2023-07-09T11:43:51;6.95;;;4.43;;
26946;SDS011;14501;52.282;10.560;2023-07-09T11:46:18;6.57;;;4.35;;
26946;SDS011;14501;52.282;10.560;2023-07-09T11:51:20;5.28;;;4.25;;
26946;SDS011;14501;52.282;10.560;2023-07-09T11:53:52;10.05;;;4.35;;
26946;SDS011;14501;52.282;10.560;2023-07-09T11:56:23;6.90;;;4.45;;
26946;SDS011;14501;52.282;10.560;2023-07-09T11:58:50;5.13;;;4.20;;
26946;SDS011;14501;52.282;10.560;2023-07-09T12:01:21;8.90;;;4.47;;
26946;SDS011;14501;52.282;10.560;2023-07-09T12:03:52;8.93;;;4.78;;
26946;SDS011;14501;52.282;10.560;2023-07-09T12:06:22;7.53;;;4.88;;
26946;SDS011;14501;52.282;10.560;2023-07-09T12:08:48;5.57;;;4.70;;
26946;SDS011;14501;52.282;10.560;2023-07-09T12:11:20;10.43;;;4.63;;
26946;SDS011;14501;52.282;10.560;2023-07-09T12:13:46;6.18;;;4.65;;
26946;SDS011;14501;52.282;10.560;2023-07-09T12:16:22;5.75;;;4.75;;
26946;SDS011;14501;52.282;10.560;2023-07-09T12:18:51;8.15;;;4.55;;
26946;SDS011;14501;52.282;10.560;2023-07-09T12:21:17;5.72;;;4.82;;
26946;SDS011;14501;52.282;10.560;2023-07-09T12:23:44;6.85;;;4.68;;
26946;SDS011;14501;52.282;10.560;2023-07-09T12:26:11;6.03;;;4.70;;
26946;SDS011;14501;52.282;10.560;2023-07-09T12:28:39;6.88;;;5.13;;
26946;SDS011;14501;52.282;10.560;2023-07-09T12:31:10;7.68;;;4.65;;
26946;SDS011;14501;52.282;10.560;2023-07-09T12:33:45;5.50;;;4.93;;
26946;SDS011;14501;52.282;10.560;2023-07-09T12:36:13;10.20;;;4.47;;
26946;SDS011;14501;52.282;10.560;2023-07-09T12:38:43;4.85;;;4.35;;
26946;SDS011;14501;52.282;10.560;2023-07-09T12:41:21;6.10;;;4.57;;
26946;SDS011;14501;52.282;10.560;2023-07-09T12:43:49;6.20;;;5.22;;
26946;SDS011;14501;52.282;10.560;2023-07-09T12:46:17;7.88;;;5.25;;
26946;SDS011;14501;52.282;10.560;2023-07-09T12:48:43;7.72;;;5.05;;
26946;SDS011;14501;52.282;10.560;2023-07-09T12:51:13;7.22;;;5.43;;
26946;SDS011;14501;52.282;10.560;2023-07-09T12:53:40;5.70;;;4.40;;
26946;SDS011;14501;52.282;10.560;2023-07-09T12:56:08;7.05;;;4.80;;
26946;SDS011;14501;52.282;10.560;2023-07-09T12:58:38;5.47;;;4.53;;
26946;SDS011;14501;52.282;10.560;2023-07-09T13:01:05;11.93;;;5.15;;
26946;SDS011;14501;52.282;10.560;2023-07-09T13:03:37;9.90;;;5.13;;
26946;SDS011;14501;52.282;10.560;2023-07-09T13:06:03;5.30;;;4.78;;
26946;SDS011;14501;52.282;10.560;2023-07-09T13:08:32;7.38;;;5.00;;
26946;SDS011;14501;52.282;10.560;2023-07-09T13:11:13;7.00;;;4.93;;
26946;SDS011;14501;52.282;10.560;2023-07-09T13:13:40;6.40;;;4.75;;
26946;SDS011;14501;52.282;10.560;2023-07-09T13:16:06;6.35;;;4.82;;
26946;SDS011;14501;52.282;10.560;2023-07-09T13:18:32;6.22;;;4.88;;
26946;SDS011;14501;52.282;10.560;2023-07-09T13:20:58;6.53;;;4.93;;
26946;SDS011;14501;52.282;10.560;2023-07-09T13:23:26;7.13;;;5.30;;
26946;SDS011;14501;52.282;10.560;2023-07-09T13:25:54;6.10;;;5.05;;
26946;SDS011;14501;52.282;10.560;2023-07-09T13:28:24;5.60;;;4.85;;
26946;SDS011;14501;52.282;10.560;2023-07-09T13:30:52;6.07;;;5.00;;
26946;SDS011;14501;52.282;10.560;2023-07-09T13:33:22;8.25;;;5.25;;
26946;SDS011;14501;52.282;10.560;2023-07-09T13:35:48;6.65;;;4.68;;
26946;SDS011;14501;52.282;10.560;2023-07-09T13:38:17;7.47;;;5.43;;
26946;SDS011;14501;52.282;10.560;2023-07-09T13:40:46;8.88;;;5.50;;
26946;SDS011;14501;52.282;10.560;2023-07-09T13:43:14;5.38;;;4.70;;
26946;SDS011;14501;52.282;10.560;2023-07-09T13:45:44;6.30;;;4.75;;
26946;SDS011;14501;52.282;10.560;2023-07-09T13:48:14;7.35;;;5.15;;
26946;SDS011;14501;52.282;10.560;2023-07-09T13:50:41;8.35;;;5.28;;
26946;SDS011;14501;52.282;10.560;2023-07-09T13:53:14;5.97;;;5.35;;
26946;SDS011;14501;52.282;10.560;2023-07-09T13:55:45;6.07;;;5.15;;
26946;SDS011;14501;52.282;10.560;2023-07-09T13:58:12;6.18;;;5.35;;
26946;SDS011;14501;52.282;10.560;2023-07-09T14:00:40;5.35;;;4.82;;
26946;SDS011;14501;52.282;10.560;2023-07-09T14:03:10;6.63;;;5.25;;
26946;SDS011;14501;52.282;10.560;2023-07-09T14:05:44;8.77;;;5.13;;
26946;SDS011;14501;52.282;10.560;2023-07-09T14:08:10;7.05;;;5.55;;
26946;SDS011;14501;52.282;10.560;2023-07-09T14:10:36;6.03;;;4.93;;
26946;SDS011;14501;52.282;10.560;2023-07-09T14:13:03;6.65;;;5.00;;
26946;SDS011;14501;52.282;10.560;2023-07-09T14:15:28;6.47;;;4.93;;
26946;SDS011;14501;52.282;10.560;2023-07-09T14:17:54;6.47;;;5.18;;
26946;SDS011;14501;52.282;10.560;2023-07-09T14:20:21;7.28;;;5.68;;
26946;SDS011;14501;52.282;10.560;2023-07-09T14:22:48;8.95;;;5.22;;
26946;SDS011;14501;52.282;10.560;2023-07-09T14:25:24;7.57;;;4.55;;
26946;SDS011;14501;52.282;10.560;2023-07-09T14:27:51;5.80;;;5.20;;
26946;SDS011;14501;52.282;10.560;2023-07-09T14:30:19;7.47;;;5.30;;
26946;SDS011;14501;52.282;10.560;2023-07-09T14:32:47;8.25;;;5.10;;
26946;SDS011;14501;52.282;10.560;2023-07-09T14:37:44;6.82;;;4.95;;
26946;SDS011;14501;52.282;10.560;2023-07-09T14:40:11;5.32;;;4.82;;
26946;SDS011;14501;52.282;10.560;2023-07-09T14:42:37;6.00;;;5.07;;
26946;SDS011;14501;52.282;10.560;2023-07-09T14:45:25;9.82;;;5.13;;
26946;SDS011;14501;52.282;10.560;2023-07-09T14:47:53;11.93;;;5.43;;
26946;SDS011;14501;52.282;10.560;2023-07-09T14:50:20;7.07;;;5.50;;
26946;SDS011;14501;52.282;10.560;2023-07-09T14:52:47;7.18;;;5.53;;
26946;SDS011;14501;52.282;10.560;2023-07-09T14:55:17;7.55;;;5.38;;
26946;SDS011;14501;52.282;10.560;2023-07-09T14:57:49;7.60;;;5.70;;
26946;SDS011;14501;52.282;10.560;2023-07-09T15:00:16;7.30;;;5.18;;
26946;SDS011;14501;52.282;10.560;2023-07-09T15:02:43;7.22;;;4.93;;
26946;SDS011;14501;52.282;10.560;2023-07-09T15:05:20;5.70;;;5.00;;
26946;SDS011;14501;52.282;10.560;2023-07-09T15:07:47;7.63;;;5.53;;
26946;SDS011;14501;52.282;10.560;2023-07-09T15:10:23;8.18;;;4.78;;
26946;SDS011;14501;52.282;10.560;2023-07-09T15:12:51;7.80;;;5.70;;
26946;SDS011;14501;52.282;10.560;2023-07-09T15:15:20;7.30;;;5.05;;
26946;SDS011;14501;52.282;10.560;2023-07-09T15:17:50;5.13;;;4.50;;
26946;SDS011;14501;52.282;10.560;2023-07-09T15:20:17;9.73;;;5.55;;